Churchville, Virginia
Current Conditions -  °F | °C
As of 1:15 PM on Friday 28 Nov 2014 (Local Time) from KSHD Reporting Station
Clear Clear  
Wind Chill: 30°   Ceiling: Unl
Heat Index: 34°   Visibility: 10mi
Dew Point: 14°   Wind: 5mph
Humidity: 44%   Direction: 270°W
Pressure: 30.28"   Gusts: NA
Location:  38.23°N, 79.16°W
Report Text: KSHD 281815Z AUTO 27004KT 10SM CLR 01/M10 A3028 RMK AO2 T00111100
Loading
Personal Weather Stations






























Interactive Weather Map New forecast layout! Learn more

10-Day Weather Forecast

Advertisements
Track Severe Weather on mobile